EDDK 210220Z 06004KT CAVOK 12/08 Q1026 NOSIG EDDK 210150Z 07003KT 9999 OVC048 11/09 Q1026 NOSIG EDDK 210120Z 02002KT 9999 OVC048 11/08 Q1026 NOSIG EDDK 210050Z 07002KT 9999 OVC048 12/08 Q1026 NOSIG EDDK 210020Z 03002KT 9999 OVC047 12/08 Q1026 NOSIG EDDK 202350Z VRB01KT 9999 OVC047 12/08 Q1026 NOSIG EDDK 202320Z 08003KT 9999 OVC048 12/08 Q1025 NOSIG EDDK 202250Z 07004KT 9999 OVC047 13/08 Q1025 NOSIG EDDK 202220Z VRB02KT 9999 OVC045 12/09 Q1025 NOSIG EDDK 202150Z VRB02KT 9999 OVC045 13/09 Q1025 NOSIG EDDK 202120Z VRB02KT 9999 OVC047 13/08 Q1025 NOSIG EDDK 202050Z 09005KT 9999 OVC045 14/08 Q1024 NOSIG EDDK 202020Z 08005KT 9999 OVC045 14/08 Q1024 NOSIG EDDK 201950Z 07004KT 9999 SCT038 BKN045 14/08 Q1024 NOSIG EDDK 201920Z 08004KT 9999 FEW040 BKN045 14/09 Q1023 NOSIG EDDK 201850Z 09004KT 060V130 9999 FEW038 BKN045 14/09 Q1023 NOSIG EDDK 201820Z 11003KT 060V170 9999 FEW038 BKN045 14/10 Q1022 NOSIG EDDK 201750Z 11003KT 9999 BKN047 14/10 Q1022 NOSIG EDDK 201720Z 11002KT 9999 BKN047 15/12 Q1022 NOSIG EDDK 201650Z VRB01KT 9999 BKN047 16/10 Q1022 NOSIG EDDK 201620Z VRB02KT 9999 FEW038 BKN048 16/10 Q1021 NOSIG EDDK 201550Z VRB02KT 9999 FEW038 BKN045 16/09 Q1021 NOSIG EDDK 201520Z VRB02KT 9999 FEW038 BKN043 16/09 Q1021 NOSIG EDDK 201450Z VRB02KT 9999 FEW034 BKN042 16/09 Q1021 NOSIG EDDK 201420Z 07004KT 360V130 9999 FEW034 BKN043 17/09 Q1021 NOSIG EDDK 201350Z 07005KT 9999 FEW034 BKN042 17/08 Q1020 NOSIG EDDK 201320Z 05003KT 360V150 9999 FEW035 BKN042 17/08 Q1020 NOSIG EDDK 201250Z 07005KT 040V110 9999 FEW038 BKN043 16/08 Q1020 NOSIG EDDK 201220Z 06005KT 030V100 9999 FEW034 BKN042 16/08 Q1020 NOSIG EDDK 201150Z 07005KT 020V120 9999 FEW032 BKN041 16/08 Q1020 NOSIG EDDK 201120Z 08006KT 050V130 9999 FEW034 BKN041 16/08 Q1020 NOSIG EDDK 201050Z 10006KT 040V170 9999 BKN035 16/08 Q1020 NOSIG EDDK 201020Z 12004KT 050V170 9999 BKN033 15/08 Q1020 NOSIG EDDK 200950Z VRB05KT 9999 BKN033 15/08 Q1020 NOSIG EDDK 200920Z 11005KT 070V140 9999 BKN032 14/08 Q1020 NOSIG EDDK 200850Z 07005KT 9999 BKN029 14/08 Q1019 NOSIG EDDK 200820Z 09006KT 060V130 9999 BKN028 14/07 Q1019 NOSIG EDDK 200750Z 09006KT 050V130 9999 SCT028 13/07 Q1019 NOSIG EDDK 200720Z 10005KT 070V140 9999 FEW042 13/08 Q1019 NOSIG EDDK 200650Z 10005KT 060V150 9999 SCT041 12/07 Q1018 NOSIG EDDK 200620Z 12004KT 070V160 9999 BKN041 11/07 Q1018 NOSIG EDDK 200550Z 09004KT 060V120 9999 BKN040 11/08 Q1018 NOSIG EDDK 200520Z 09004KT 050V130 9999 SCT040 11/07 Q1018 NOSIG EDDK 200450Z 09003KT 060V120 9999 FEW040 10/07 Q1018 NOSIG EDDK 200420Z 09003KT 060V120 CAVOK 10/07 Q1018 NOSIG EDDK 200350Z 09003KT 060V120 CAVOK 09/07 Q1018 NOSIG EDDK 200320Z 08003KT CAVOK 09/07 Q1017 NOSIG EDDK 200250Z 09003KT 9999 FEW048 09/08 Q1017 NOSIG EDDK 200220Z 09002KT 9999 FEW046 10/08 Q1017 NOSIG EDDK 200150Z 08003KT 050V110 9999 FEW046 11/08 Q1017 NOSIG EDDK 200120Z 07003KT 030V110 9999 BKN045 12/08 Q1017 NOSIG EDDK 200050Z 10003KT 040V140 9999 BKN045 12/08 Q1017 NOSIG EDDK 200020Z VRB02KT 9999 OVC045 12/08 Q1017 NOSIG EDDK 192350Z 10003KT 060V150 9999 OVC045 12/08 Q1017 NOSIG EDDK 192320Z 09003KT 040V140 9999 OVC045 12/08 Q1017 NOSIG EDDK 192250Z 09003KT 050V150 9999 OVC045 12/08 Q1017 NOSIG EDDK 192220Z 10004KT 050V170 9999 BKN044 12/08 Q1017 NOSIG EDDK 192150Z 11006KT 060V150 9999 BKN044 13/08 Q1017 NOSIG EDDK 192120Z 10006KT 060V140 9999 BKN045 13/08 Q1017 NOSIG EDDK 192050Z 07007KT 9999 BKN045 13/09 Q1017 NOSIG EDDK 192020Z 08005KT 050V110 CAVOK 12/09 Q1016 NOSIG EDDK 191950Z 10004KT 030V130 CAVOK 12/09 Q1016 NOSIG EDDK 191920Z 09004KT 060V130 CAVOK 13/10 Q1016 NOSIG EDDK 191850Z 10003KT 070V150 CAVOK 13/10 Q1016 NOSIG EDDK 191820Z 10003KT 060V140 CAVOK 14/10 Q1016 NOSIG EDDK 191750Z 12005KT 090V150 CAVOK 14/10 Q1015 NOSIG EDDK 191720Z 09005KT CAVOK 15/11 Q1015 NOSIG EDDK 191650Z 09006KT 060V130 9999 FEW040 17/11 Q1015 NOSIG EDDK 191620Z 07006KT 9999 FEW040 18/11 Q1015 NOSIG EDDK 191550Z 07007KT 040V110 9999 FEW040 18/10 Q1015 NOSIG EDDK 191520Z 08007KT 9999 FEW040 BKN048 18/10 Q1015 NOSIG EDDK 191450Z 08006KT 9999 FEW040 BKN048 18/11 Q1015 NOSIG

METAR Messwerte

Zurück zur Übersicht

Ort
m ü. NN
Zeit Temperatur Taupunkt Rel.
Luftfeuchte
Luftdruck:
Altimeter
NN
Station
Wind in Beaufort
(Knoten)
Sichtweite
(Meter)
Wolken
(Meter über Grund)
Wettererscheinung
Köln/Bonn
99
Di 21.09. 04:2012876 %1026
1026
1014
ONO 2 (4)>= 10000Nicht signifikant 
Köln/Bonn
99
Di 21.09. 03:5011987 %1026
1026
1014
ONO 2 (3)>= 10000Bedeckt (1500) 
Köln/Bonn
99
Di 21.09. 03:2011882 %1026
1026
1014
NNO 1 (2)>= 10000Bedeckt (1500) 
Köln/Bonn
99
Di 21.09. 02:5012876 %1026
1026
1014
ONO 1 (2)>= 10000Bedeckt (1500) 
Köln/Bonn
99
Di 21.09. 02:2012876 %1026
1026
1014
NNO 1 (2)>= 10000Bedeckt (1400) 
Köln/Bonn
99
Di 21.09. 01:5012876 %1026
1026
1014
Uml 1 (1)>= 10000Bedeckt (1400) 
Köln/Bonn
99
Di 21.09. 01:2012876 %1025
1025
1013
O 2 (3)>= 10000Bedeckt (1500) 
Köln/Bonn
99
Di 21.09. 00:5013872 %1025
1025
1013
ONO 2 (4)>= 10000Bedeckt (1400) 
Köln/Bonn
99
Di 21.09. 00:2012982 %1025
1025
1013
Uml 1 (2)>= 10000Bedeckt (1400) 
Köln/Bonn
99
Mo 20.09. 23:5013977 %1025
1025
1013
Uml 1 (2)>= 10000Bedeckt (1400) 
Köln/Bonn
99
Mo 20.09. 23:2013872 %1025
1025
1013
Uml 1 (2)>= 10000Bedeckt (1400) 
Köln/Bonn
99
Mo 20.09. 22:5014867 %1024
1024
1012
O 2 (5)>= 10000Bedeckt (1400) 
Köln/Bonn
99
Mo 20.09. 22:2014867 %1024
1024
1012
O 2 (5)>= 10000Bedeckt (1400) 
Köln/Bonn
99
Mo 20.09. 21:5014867 %1024
1024
1012
ONO 2 (4)>= 10000Stark bewölkt (1400)
Wolkig (1200)
 
Köln/Bonn
99
Mo 20.09. 21:2014972 %1023
1023
1011
O 2 (4)>= 10000Stark bewölkt (1400)
Leicht bewölkt (1200)
 
Köln/Bonn
99
Mo 20.09. 20:5014972 %1023
1023
1011
O 2 (4)
ONO - SO
>= 10000Stark bewölkt (1400)
Leicht bewölkt (1200)
 
Köln/Bonn
99
Mo 20.09. 20:20141077 %1022
1022
1010
OSO 2 (3)
ONO - S
>= 10000Stark bewölkt (1400)
Leicht bewölkt (1200)
 
Köln/Bonn
99
Mo 20.09. 19:50141077 %1022
1022
1010
OSO 2 (3)>= 10000Stark bewölkt (1400) 
Köln/Bonn
99
Mo 20.09. 19:20151282 %1022
1022
1010
OSO 1 (2)>= 10000Stark bewölkt (1400) 
Köln/Bonn
99
Mo 20.09. 18:50161068 %1022
1022
1010
Uml 1 (1)>= 10000Stark bewölkt (1400) 
Köln/Bonn
99
Mo 20.09. 18:20161068 %1021
1021
1009
Uml 1 (2)>= 10000Stark bewölkt (1500)
Leicht bewölkt (1200)
 
Köln/Bonn
99
Mo 20.09. 17:5016963 %1021
1021
1009
Uml 1 (2)>= 10000Stark bewölkt (1400)
Leicht bewölkt (1200)
 
Köln/Bonn
99
Mo 20.09. 17:2016963 %1021
1021
1009
Uml 1 (2)>= 10000Stark bewölkt (1300)
Leicht bewölkt (1200)
 
Köln/Bonn
99
Mo 20.09. 16:5016963 %1021
1021
1009
Uml 1 (2)>= 10000Stark bewölkt (1300)
Leicht bewölkt (1000)
 
Köln/Bonn
99
Mo 20.09. 16:2017959 %1021
1021
1009
ONO 2 (4)
N - SO
>= 10000Stark bewölkt (1300)
Leicht bewölkt (1000)
 
Köln/Bonn
99
Mo 20.09. 15:5017855 %1020
1020
1008
ONO 2 (5)>= 10000Stark bewölkt (1300)
Leicht bewölkt (1000)
 
Köln/Bonn
99
Mo 20.09. 15:2017855 %1020
1020
1008
NO 2 (3)
N - SSO
>= 10000Stark bewölkt (1300)
Leicht bewölkt (1100)
 
Köln/Bonn
99
Mo 20.09. 14:5016859 %1020
1020
1008
ONO 2 (5)
NO - OSO
>= 10000Stark bewölkt (1300)
Leicht bewölkt (1200)
 
Köln/Bonn
99
Mo 20.09. 14:2016859 %1020
1020
1008
ONO 2 (5)
NNO - O
>= 10000Stark bewölkt (1300)
Leicht bewölkt (1000)
 
Köln/Bonn
99
Mo 20.09. 13:5016859 %1020
1020
1008
ONO 2 (5)
NNO - OSO
>= 10000Stark bewölkt (1200)
Leicht bewölkt (980)
 
Köln/Bonn
99
Mo 20.09. 13:2016859 %1020
1020
1008
O 2 (6)
NO - SO
>= 10000Stark bewölkt (1200)
Leicht bewölkt (1000)
 
Köln/Bonn
99
Mo 20.09. 12:5016859 %1020
1020
1008
O 2 (6)
NO - S
>= 10000Stark bewölkt (1100) 
Köln/Bonn
99
Mo 20.09. 12:2015863 %1020
1020
1008
OSO 2 (4)
NO - S
>= 10000Stark bewölkt (1000) 
Köln/Bonn
99
Mo 20.09. 11:5015863 %1020
1020
1008
Uml 2 (5)>= 10000Stark bewölkt (1000) 
Köln/Bonn
99
Mo 20.09. 11:2014867 %1020
1020
1008
OSO 2 (5)
ONO - SO
>= 10000Stark bewölkt (980) 
Köln/Bonn
99
Mo 20.09. 10:5014867 %1019
1019
1007
ONO 2 (5)>= 10000Stark bewölkt (880) 
Köln/Bonn
99
Mo 20.09. 10:2014763 %1019
1019
1007
O 2 (6)
ONO - SO
>= 10000Stark bewölkt (850) 
Köln/Bonn
99
Mo 20.09. 09:5013767 %1019
1019
1007
O 2 (6)
NO - SO
>= 10000Wolkig (850) 
Köln/Bonn
99
Mo 20.09. 09:2013872 %1019
1019
1007
O 2 (5)
ONO - SO
>= 10000Leicht bewölkt (1300) 
Köln/Bonn
99
Mo 20.09. 08:5012771 %1018
1018
1006
O 2 (5)
ONO - SSO
>= 10000Wolkig (1200) 
Köln/Bonn
99
Mo 20.09. 08:2011776 %1018
1018
1006
OSO 2 (4)
ONO - SSO
>= 10000Stark bewölkt (1200) 
Köln/Bonn
99
Mo 20.09. 07:5011882 %1018
1018
1006
O 2 (4)
ONO - OSO
>= 10000Stark bewölkt (1200) 
Köln/Bonn
99
Mo 20.09. 07:2011776 %1018
1018
1006
O 2 (4)
NO - SO
>= 10000Wolkig (1200) 
Köln/Bonn
99
Mo 20.09. 06:5010782 %1018
1018
1006
O 2 (3)
ONO - OSO
>= 10000Leicht bewölkt (1200) 
Köln/Bonn
99
Mo 20.09. 06:2010782 %1018
1018
1006
O 2 (3)
ONO - OSO
>= 10000Nicht signifikant 
Köln/Bonn
99
Mo 20.09. 05:509787 %1018
1018
1006
O 2 (3)
ONO - OSO
>= 10000Nicht signifikant 
Köln/Bonn
99
Mo 20.09. 05:209787 %1017
1017
1005
O 2 (3)>= 10000Nicht signifikant 
Köln/Bonn
99
Mo 20.09. 04:509893 %1017
1017
1005
O 2 (3)>= 10000Leicht bewölkt (1500) 
Köln/Bonn
99
Mo 20.09. 04:2010887 %1017
1017
1005
O 1 (2)>= 10000Leicht bewölkt (1400) 
Köln/Bonn
99
Mo 20.09. 03:5011882 %1017
1017
1005
O 2 (3)
NO - OSO
>= 10000Leicht bewölkt (1400) 
Köln/Bonn
99
Mo 20.09. 03:2012876 %1017
1017
1005
ONO 2 (3)
NNO - OSO
>= 10000Stark bewölkt (1400) 
Köln/Bonn
99
Mo 20.09. 02:5012876 %1017
1017
1005
O 2 (3)
NO - SO
>= 10000Stark bewölkt (1400) 
Köln/Bonn
99
Mo 20.09. 02:2012876 %1017
1017
1005
Uml 1 (2)>= 10000Bedeckt (1400) 
Köln/Bonn
99
Mo 20.09. 01:5012876 %1017
1017
1005
O 2 (3)
ONO - SSO
>= 10000Bedeckt (1400) 
Köln/Bonn
99
Mo 20.09. 01:2012876 %1017
1017
1005
O 2 (3)
NO - SO
>= 10000Bedeckt (1400) 
Köln/Bonn
99
Mo 20.09. 00:5012876 %1017
1017
1005
O 2 (3)
NO - SSO
>= 10000Bedeckt (1400) 
Köln/Bonn
99
Mo 20.09. 00:2012876 %1017
1017
1005
O 2 (4)
NO - S
>= 10000Stark bewölkt (1300) 
Köln/Bonn
99
So 19.09. 23:5013872 %1017
1017
1005
OSO 2 (6)
ONO - SSO
>= 10000Stark bewölkt (1300) 
Köln/Bonn
99
So 19.09. 23:2013872 %1017
1017
1005
O 2 (6)
ONO - SO
>= 10000Stark bewölkt (1400) 
Köln/Bonn
99
So 19.09. 22:5013977 %1017
1017
1005
ONO 3 (7)>= 10000Stark bewölkt (1400) 
Köln/Bonn
99
So 19.09. 22:2012982 %1016
1016
1004
O 2 (5)
NO - OSO
>= 10000Nicht signifikant 
Köln/Bonn
99
So 19.09. 21:5012982 %1016
1016
1004
O 2 (4)
NNO - SO
>= 10000Nicht signifikant 
Köln/Bonn
99
So 19.09. 21:20131082 %1016
1016
1004
O 2 (4)
ONO - SO
>= 10000Nicht signifikant 
Köln/Bonn
99
So 19.09. 20:50131082 %1016
1016
1004
O 2 (3)
ONO - SSO
>= 10000Nicht signifikant 
Köln/Bonn
99
So 19.09. 20:20141077 %1016
1016
1004
O 2 (3)
ONO - SO
>= 10000Nicht signifikant 
Köln/Bonn
99
So 19.09. 19:50141077 %1015
1015
1003
OSO 2 (5)
O - SSO
>= 10000Nicht signifikant 
Köln/Bonn
99
So 19.09. 19:20151177 %1015
1015
1003
O 2 (5)>= 10000Nicht signifikant 
Köln/Bonn
99
So 19.09. 18:50171168 %1015
1015
1003
O 2 (6)
ONO - SO
>= 10000Leicht bewölkt (1200) 
Köln/Bonn
99
So 19.09. 18:20181164 %1015
1015
1003
ONO 2 (6)>= 10000Leicht bewölkt (1200) 
Köln/Bonn
99
So 19.09. 17:50181059 %1015
1015
1003
ONO 3 (7)
NO - OSO
>= 10000Leicht bewölkt (1200) 
Köln/Bonn
99
So 19.09. 17:20181059 %1015
1015
1003
O 3 (7)>= 10000Stark bewölkt (1500)
Leicht bewölkt (1200)
 
Köln/Bonn
99
So 19.09. 16:50181164 %1015
1015
1003
O 2 (6)>= 10000Stark bewölkt (1500)
Leicht bewölkt (1200)
 

Altimeter: Einstellung am Altimeter (Höhenmesser), die Höhe 0 muss auf diesen Luftdruckwert zeigen, damit das Gerät die Stationshöhe richtig anzeigt.

NN: Luftdruck reduziert auf "Normal Null", auf Meereshöhe, dieser von der Temperatur abhängige Wert wird bisweilen unkorrekt einfach als "Luftdruck" bezeichnet. Eigentlich nur eine fiktive Größe, die es erlaubt, Stationen auf unterschiedlichen Höhen miteinander zu vergleichen.

Station: Realer Luftdruck an der Station.